sensor_id;sensor_type;location;lat;lon;timestamp;pressure;altitude;pressure_sealevel;temperature;humidity
44457;BME280;30159;49.316;8.558;2022-09-03T00:01:58;99927.28;;;20.07;58.90
44457;BME280;30159;49.316;8.558;2022-09-03T00:04:31;99921.38;;;20.05;59.19
44457;BME280;30159;49.316;8.558;2022-09-03T00:07:07;99931.31;;;20.13;58.96
44457;BME280;30159;49.316;8.558;2022-09-03T00:09:39;99930.09;;;20.11;59.03
44457;BME280;30159;49.316;8.558;2022-09-03T00:12:10;99935.28;;;20.16;59.07
44457;BME280;30159;49.316;8.558;2022-09-03T00:14:41;99932.56;;;20.16;58.79
44457;BME280;30159;49.316;8.558;2022-09-03T00:17:12;99933.59;;;20.27;58.90
44457;BME280;30159;49.316;8.558;2022-09-03T00:19:44;99934.03;;;20.29;58.62
44457;BME280;30159;49.316;8.558;2022-09-03T00:22:16;99932.25;;;20.37;60.07
44457;BME280;30159;49.316;8.558;2022-09-03T00:24:45;99931.81;;;20.35;62.57
44457;BME280;30159;49.316;8.558;2022-09-03T00:27:16;99924.66;;;20.30;63.62
44457;BME280;30159;49.316;8.558;2022-09-03T00:29:46;99924.44;;;20.19;65.23
44457;BME280;30159;49.316;8.558;2022-09-03T00:32:19;99923.38;;;20.08;65.90
44457;BME280;30159;49.316;8.558;2022-09-03T00:34:50;99926.91;;;20.09;64.97
44457;BME280;30159;49.316;8.558;2022-09-03T00:37:22;99914.56;;;19.99;64.84
44457;BME280;30159;49.316;8.558;2022-09-03T00:39:49;99921.19;;;19.82;64.01
44457;BME280;30159;49.316;8.558;2022-09-03T00:42:27;99919.53;;;19.77;65.74
44457;BME280;30159;49.316;8.558;2022-09-03T00:45:10;99898.31;;;19.58;66.71
44457;BME280;30159;49.316;8.558;2022-09-03T00:47:51;99909.69;;;19.45;69.96
44457;BME280;30159;49.316;8.558;2022-09-03T00:50:28;99912.84;;;19.31;69.16
44457;BME280;30159;49.316;8.558;2022-09-03T00:53:10;99918.72;;;19.17;68.65
44457;BME280;30159;49.316;8.558;2022-09-03T00:55:48;99921.28;;;19.26;69.43
44457;BME280;30159;49.316;8.558;2022-09-03T00:58:42;99917.41;;;19.27;69.91
44457;BME280;30159;49.316;8.558;2022-09-03T01:01:14;99909.66;;;19.29;69.05
44457;BME280;30159;49.316;8.558;2022-09-03T01:03:48;99919.09;;;19.31;67.62
44457;BME280;30159;49.316;8.558;2022-09-03T01:06:23;99913.09;;;19.42;68.34
44457;BME280;30159;49.316;8.558;2022-09-03T01:09:14;99923.25;;;19.41;67.24
44457;BME280;30159;49.316;8.558;2022-09-03T01:11:50;99924.31;;;19.36;65.57
44457;BME280;30159;49.316;8.558;2022-09-03T01:14:33;99913.72;;;19.35;64.94
44457;BME280;30159;49.316;8.558;2022-09-03T01:17:09;99913.72;;;19.35;64.34
44457;BME280;30159;49.316;8.558;2022-09-03T01:20:01;99913.81;;;19.38;64.68
44457;BME280;30159;49.316;8.558;2022-09-03T01:23:02;99919.44;;;19.30;64.61
44457;BME280;30159;49.316;8.558;2022-09-03T01:25:41;99907.38;;;19.31;64.51
44457;BME280;30159;49.316;8.558;2022-09-03T01:28:22;99921.22;;;19.38;63.72
44457;BME280;30159;49.316;8.558;2022-09-03T01:31:03;99922.56;;;19.44;64.11
44457;BME280;30159;49.316;8.558;2022-09-03T01:33:39;99917.09;;;19.44;64.11
44457;BME280;30159;49.316;8.558;2022-09-03T01:36:11;99933.59;;;19.48;63.38
44457;BME280;30159;49.316;8.558;2022-09-03T01:38:46;99929.97;;;19.44;63.53
44457;BME280;30159;49.316;8.558;2022-09-03T01:41:22;99930.59;;;19.53;63.72
44457;BME280;30159;49.316;8.558;2022-09-03T01:44:18;99933.88;;;19.58;63.90
44457;BME280;30159;49.316;8.558;2022-09-03T01:46:51;99936.78;;;19.50;63.12
44457;BME280;30159;49.316;8.558;2022-09-03T01:49:27;99922.47;;;19.56;62.69
44457;BME280;30159;49.316;8.558;2022-09-03T01:52:01;99929.63;;;19.45;63.00
44457;BME280;30159;49.316;8.558;2022-09-03T01:54:50;99927.31;;;19.47;62.65
44457;BME280;30159;49.316;8.558;2022-09-03T02:00:11;99924.31;;;19.52;62.44
44457;BME280;30159;49.316;8.558;2022-09-03T02:02:39;99924.84;;;19.42;62.98
44457;BME280;30159;49.316;8.558;2022-09-03T02:05:08;99939.16;;;19.51;62.53
44457;BME280;30159;49.316;8.558;2022-09-03T02:07:39;99938.72;;;19.49;62.42
44457;BME280;30159;49.316;8.558;2022-09-03T02:10:08;99940.75;;;19.52;62.75
44457;BME280;30159;49.316;8.558;2022-09-03T02:12:37;99944.97;;;19.50;62.78
44457;BME280;30159;49.316;8.558;2022-09-03T02:15:10;99957.16;;;19.52;62.86
44457;BME280;30159;49.316;8.558;2022-09-03T02:17:39;99956.81;;;19.54;63.17
44457;BME280;30159;49.316;8.558;2022-09-03T02:20:09;99951.69;;;19.52;63.01
44457;BME280;30159;49.316;8.558;2022-09-03T02:22:37;99901.78;;;19.11;63.66
44457;BME280;30159;49.316;8.558;2022-09-03T02:25:06;99956.97;;;19.45;63.15
44457;BME280;30159;49.316;8.558;2022-09-03T02:27:32;99956.19;;;19.45;62.81
44457;BME280;30159;49.316;8.558;2022-09-03T02:29:59;99953.34;;;19.41;62.93
44457;BME280;30159;49.316;8.558;2022-09-03T02:32:28;99950.16;;;19.39;63.15
44457;BME280;30159;49.316;8.558;2022-09-03T02:34:55;99945.19;;;19.29;62.77
44457;BME280;30159;49.316;8.558;2022-09-03T02:37:21;99954.00;;;19.22;63.31
44457;BME280;30159;49.316;8.558;2022-09-03T02:39:48;99952.75;;;19.20;63.61
44457;BME280;30159;49.316;8.558;2022-09-03T02:42:16;99954.34;;;19.21;63.90
44457;BME280;30159;49.316;8.558;2022-09-03T02:44:46;99945.06;;;19.09;63.60
44457;BME280;30159;49.316;8.558;2022-09-03T02:47:14;99790.31;;;18.08;63.45
44457;BME280;30159;49.316;8.558;2022-09-03T02:49:41;99955.28;;;19.12;64.06
44457;BME280;30159;49.316;8.558;2022-09-03T02:52:09;99956.88;;;19.13;64.34
44457;BME280;30159;49.316;8.558;2022-09-03T04:55:38;99971.97;;;17.72;78.83
44457;BME280;30159;49.316;8.558;2022-09-03T04:58:05;99980.69;;;17.53;80.07
44457;BME280;30159;49.316;8.558;2022-09-03T05:00:33;99981.72;;;17.61;79.62
44457;BME280;30159;49.316;8.558;2022-09-03T05:03:01;99973.84;;;17.59;79.08
44457;BME280;30159;49.316;8.558;2022-09-03T05:05:29;99982.28;;;17.66;78.85
44457;BME280;30159;49.316;8.558;2022-09-03T05:07:57;99986.72;;;17.71;78.71
44457;BME280;30159;49.316;8.558;2022-09-03T05:10:26;99954.69;;;17.68;78.15
44457;BME280;30159;49.316;8.558;2022-09-03T05:12:59;99984.88;;;17.84;78.22
44457;BME280;30159;49.316;8.558;2022-09-03T05:15:26;99983.41;;;17.86;77.48
44457;BME280;30159;49.316;8.558;2022-09-03T05:17:56;99985.66;;;17.97;77.36
44457;BME280;30159;49.316;8.558;2022-09-03T05:20:23;99984.88;;;17.96;77.16
44457;BME280;30159;49.316;8.558;2022-09-03T05:22:50;99993.44;;;18.07;76.61
44457;BME280;30159;49.316;8.558;2022-09-03T05:25:17;100000.94;;;18.10;76.49
44457;BME280;30159;49.316;8.558;2022-09-03T05:27:44;99991.16;;;18.09;76.54
44457;BME280;30159;49.316;8.558;2022-09-03T05:30:12;100002.09;;;18.09;76.64
44457;BME280;30159;49.316;8.558;2022-09-03T05:32:39;100002.03;;;17.97;77.47
44457;BME280;30159;49.316;8.558;2022-09-03T05:35:07;99958.09;;;17.65;77.38
44457;BME280;30159;49.316;8.558;2022-09-03T05:37:35;99999.78;;;17.99;77.37
44457;BME280;30159;49.316;8.558;2022-09-03T05:40:02;100002.50;;;18.11;76.72
44457;BME280;30159;49.316;8.558;2022-09-03T05:42:29;100001.75;;;18.23;77.25
44457;BME280;30159;49.316;8.558;2022-09-03T05:44:56;100003.91;;;18.17;77.11
44457;BME280;30159;49.316;8.558;2022-09-03T05:47:25;100020.19;;;18.26;77.50
44457;BME280;30159;49.316;8.558;2022-09-03T05:49:52;100017.13;;;18.40;76.73
44457;BME280;30159;49.316;8.558;2022-09-03T05:52:18;100017.34;;;18.47;76.95
44457;BME280;30159;49.316;8.558;2022-09-03T05:54:46;100017.91;;;18.52;76.79
44457;BME280;30159;49.316;8.558;2022-09-03T05:57:12;100008.44;;;18.62;76.18
44457;BME280;30159;49.316;8.558;2022-09-03T05:59:39;100016.19;;;18.72;75.90
44457;BME280;30159;49.316;8.558;2022-09-03T06:02:05;100018.34;;;18.67;76.31
44457;BME280;30159;49.316;8.558;2022-09-03T06:04:33;100023.03;;;18.54;76.60
44457;BME280;30159;49.316;8.558;2022-09-03T06:07:00;99980.00;;;18.39;76.59
44457;BME280;30159;49.316;8.558;2022-09-03T06:09:26;100029.41;;;18.83;76.77
44457;BME280;30159;49.316;8.558;2022-09-03T06:11:53;100024.63;;;18.80;77.61
44457;BME280;30159;49.316;8.558;2022-09-03T06:14:20;99991.81;;;18.55;78.78
44457;BME280;30159;49.316;8.558;2022-09-03T06:16:48;100030.09;;;18.80;80.33
44457;BME280;30159;49.316;8.558;2022-09-03T06:19:17;100029.59;;;18.53;85.70
44457;BME280;30159;49.316;8.558;2022-09-03T06:21:45;100050.56;;;18.49;87.45
44457;BME280;30159;49.316;8.558;2022-09-03T06:24:13;100042.94;;;18.42;90.81
44457;BME280;30159;49.316;8.558;2022-09-03T06:26:40;100050.91;;;18.23;91.77
44457;BME280;30159;49.316;8.558;2022-09-03T06:29:06;100050.06;;;18.10;92.20
44457;BME280;30159;49.316;8.558;2022-09-03T06:31:33;100048.09;;;17.86;97.30
44457;BME280;30159;49.316;8.558;2022-09-03T06:34:00;100050.19;;;17.80;97.56
44457;BME280;30159;49.316;8.558;2022-09-03T06:36:27;100024.56;;;17.60;98.66
44457;BME280;30159;49.316;8.558;2022-09-03T06:38:56;100049.81;;;17.69;100.00
44457;BME280;30159;49.316;8.558;2022-09-03T06:41:24;100037.38;;;17.60;100.00
44457;BME280;30159;49.316;8.558;2022-09-03T06:43:52;100040.31;;;17.55;100.00
44457;BME280;30159;49.316;8.558;2022-09-03T06:46:21;100033.69;;;17.43;100.00
44457;BME280;30159;49.316;8.558;2022-09-03T06:48:48;100040.59;;;17.41;100.00
44457;BME280;30159;49.316;8.558;2022-09-03T06:51:17;100043.06;;;17.34;100.00
44457;BME280;30159;49.316;8.558;2022-09-03T06:53:45;100035.88;;;17.29;100.00
44457;BME280;30159;49.316;8.558;2022-09-03T06:56:16;100051.59;;;17.32;100.00
44457;BME280;30159;49.316;8.558;2022-09-03T06:58:44;100017.28;;;17.10;100.00
44457;BME280;30159;49.316;8.558;2022-09-03T07:01:12;100042.94;;;17.30;100.00
44457;BME280;30159;49.316;8.558;2022-09-03T07:03:41;100048.13;;;17.44;100.00
44457;BME280;30159;49.316;8.558;2022-09-03T07:06:09;100056.22;;;17.32;100.00
44457;BME280;30159;49.316;8.558;2022-09-03T07:08:36;99981.28;;;16.75;100.00
44457;BME280;30159;49.316;8.558;2022-09-03T07:11:05;100050.00;;;17.10;100.00
44457;BME280;30159;49.316;8.558;2022-09-03T07:13:36;100048.66;;;16.95;100.00
44457;BME280;30159;49.316;8.558;2022-09-03T07:16:06;100008.66;;;16.57;100.00
44457;BME280;30159;49.316;8.558;2022-09-03T07:18:33;100053.84;;;16.88;100.00
44457;BME280;30159;49.316;8.558;2022-09-03T07:21:01;100065.78;;;16.96;100.00
44457;BME280;30159;49.316;8.558;2022-09-03T07:23:29;100071.84;;;17.01;100.00
44457;BME280;30159;49.316;8.558;2022-09-03T07:25:57;100062.63;;;17.15;100.00
44457;BME280;30159;49.316;8.558;2022-09-03T07:28:25;100083.63;;;17.35;100.00
44457;BME280;30159;49.316;8.558;2022-09-03T07:30:54;100087.88;;;17.45;100.00
44457;BME280;30159;49.316;8.558;2022-09-03T07:33:27;100081.41;;;17.70;100.00
44457;BME280;30159;49.316;8.558;2022-09-03T07:35:54;100084.56;;;17.81;100.00
44457;BME280;30159;49.316;8.558;2022-09-03T07:38:20;100082.75;;;17.85;100.00
44457;BME280;30159;49.316;8.558;2022-09-03T07:40:48;100076.56;;;17.76;100.00
44457;BME280;30159;49.316;8.558;2022-09-03T07:43:23;100076.28;;;17.69;100.00
44457;BME280;30159;49.316;8.558;2022-09-03T07:45:50;100076.97;;;17.66;100.00
44457;BME280;30159;49.316;8.558;2022-09-03T07:48:18;100079.56;;;17.62;100.00
44457;BME280;30159;49.316;8.558;2022-09-03T07:50:45;100073.50;;;17.57;100.00
44457;BME280;30159;49.316;8.558;2022-09-03T07:53:13;100068.22;;;17.39;100.00
44457;BME280;30159;49.316;8.558;2022-09-03T07:55:41;100072.16;;;17.30;100.00
44457;BME280;30159;49.316;8.558;2022-09-03T07:58:08;100069.06;;;17.31;100.00
44457;BME280;30159;49.316;8.558;2022-09-03T08:00:35;100063.25;;;17.20;100.00
44457;BME280;30159;49.316;8.558;2022-09-03T08:03:01;100066.50;;;17.14;100.00
44457;BME280;30159;49.316;8.558;2022-09-03T08:05:35;100055.69;;;16.96;100.00
44457;BME280;30159;49.316;8.558;2022-09-03T08:08:02;100061.13;;;16.96;100.00
44457;BME280;30159;49.316;8.558;2022-09-03T08:10:29;100047.56;;;16.88;100.00
44457;BME280;30159;49.316;8.558;2022-09-03T08:12:57;100071.25;;;17.17;100.00
44457;BME280;30159;49.316;8.558;2022-09-03T08:15:24;100081.84;;;17.39;100.00
44457;BME280;30159;49.316;8.558;2022-09-03T08:17:51;100078.03;;;17.53;100.00
44457;BME280;30159;49.316;8.558;2022-09-03T08:20:18;100064.97;;;17.46;100.00
44457;BME280;30159;49.316;8.558;2022-09-03T08:22:46;100074.78;;;17.38;100.00
44457;BME280;30159;49.316;8.558;2022-09-03T08:25:13;100066.47;;;17.56;100.00
44457;BME280;30159;49.316;8.558;2022-09-03T08:27:39;100066.25;;;17.61;100.00
44457;BME280;30159;49.316;8.558;2022-09-03T08:30:07;100072.19;;;17.42;100.00
44457;BME280;30159;49.316;8.558;2022-09-03T08:32:36;100086.94;;;17.41;100.00
44457;BME280;30159;49.316;8.558;2022-09-03T08:35:04;100070.84;;;17.27;100.00
44457;BME280;30159;49.316;8.558;2022-09-03T08:37:31;100063.63;;;17.31;100.00
44457;BME280;30159;49.316;8.558;2022-09-03T08:39:59;100047.25;;;17.31;100.00
44457;BME280;30159;49.316;8.558;2022-09-03T08:42:39;100061.03;;;17.35;100.00
44457;BME280;30159;49.316;8.558;2022-09-03T08:45:14;100073.41;;;17.32;100.00
44457;BME280;30159;49.316;8.558;2022-09-03T08:47:44;100078.84;;;17.32;100.00
44457;BME280;30159;49.316;8.558;2022-09-03T08:50:21;100093.59;;;17.31;100.00
44457;BME280;30159;49.316;8.558;2022-09-03T08:52:51;100090.56;;;17.33;100.00
44457;BME280;30159;49.316;8.558;2022-09-03T08:55:24;100092.28;;;17.37;100.00
44457;BME280;30159;49.316;8.558;2022-09-03T08:57:55;100091.63;;;17.40;100.00
44457;BME280;30159;49.316;8.558;2022-09-03T09:00:24;100106.25;;;17.36;100.00
44457;BME280;30159;49.316;8.558;2022-09-03T09:03:20;100099.78;;;17.40;100.00
44457;BME280;30159;49.316;8.558;2022-09-03T09:05:53;100054.97;;;16.78;100.00
44457;BME280;30159;49.316;8.558;2022-09-03T09:08:31;100113.94;;;17.13;100.00
44457;BME280;30159;49.316;8.558;2022-09-03T09:11:05;100120.88;;;17.31;100.00
44457;BME280;30159;49.316;8.558;2022-09-03T09:13:40;100135.50;;;17.47;100.00
44457;BME280;30159;49.316;8.558;2022-09-03T09:16:14;100110.75;;;17.53;100.00
44457;BME280;30159;49.316;8.558;2022-09-03T09:18:55;100128.00;;;18.20;100.00
44457;BME280;30159;49.316;8.558;2022-09-03T09:21:33;100131.50;;;18.66;100.00
44457;BME280;30159;49.316;8.558;2022-09-03T09:24:05;100130.50;;;18.95;100.00
44457;BME280;30159;49.316;8.558;2022-09-03T09:26:39;100130.06;;;19.58;100.00
44457;BME280;30159;49.316;8.558;2022-09-03T09:29:08;100130.50;;;20.00;100.00
44457;BME280;30159;49.316;8.558;2022-09-03T09:31:36;100127.56;;;20.37;100.00
44457;BME280;30159;49.316;8.558;2022-09-03T09:34:04;100137.72;;;20.21;97.17
44457;BME280;30159;49.316;8.558;2022-09-03T09:36:40;100137.91;;;20.28;99.41
44457;BME280;30159;49.316;8.558;2022-09-03T09:39:08;100134.75;;;20.42;99.37
44457;BME280;30159;49.316;8.558;2022-09-03T09:41:36;100139.81;;;20.12;98.21
44457;BME280;30159;49.316;8.558;2022-09-03T09:44:03;100144.94;;;19.85;100.00
44457;BME280;30159;49.316;8.558;2022-09-03T09:46:34;100123.81;;;19.86;100.00
44457;BME280;30159;49.316;8.558;2022-09-03T09:49:07;100127.28;;;20.27;100.00
44457;BME280;30159;49.316;8.558;2022-09-03T09:51:44;100136.22;;;20.24;97.34
44457;BME280;30159;49.316;8.558;2022-09-03T09:54:13;100138.25;;;20.27;100.00
44457;BME280;30159;49.316;8.558;2022-09-03T09:56:42;100129.75;;;20.32;99.13
44457;BME280;30159;49.316;8.558;2022-09-03T09:59:10;100129.09;;;19.38;100.00
44457;BME280;30159;49.316;8.558;2022-09-03T10:01:38;100127.31;;;19.05;100.00
44457;BME280;30159;49.316;8.558;2022-09-03T10:04:10;100125.03;;;19.07;100.00
44457;BME280;30159;49.316;8.558;2022-09-03T10:06:38;100121.38;;;19.28;100.00
44457;BME280;30159;49.316;8.558;2022-09-03T10:09:23;100114.44;;;19.58;100.00
44457;BME280;30159;49.316;8.558;2022-09-03T10:11:57;100124.22;;;19.72;100.00
44457;BME280;30159;49.316;8.558;2022-09-03T10:14:35;100109.28;;;19.69;100.00
44457;BME280;30159;49.316;8.558;2022-09-03T10:17:08;100100.53;;;19.64;100.00
44457;BME280;30159;49.316;8.558;2022-09-03T10:19:42;100103.94;;;19.73;100.00
44457;BME280;30159;49.316;8.558;2022-09-03T10:22:33;100099.25;;;19.73;100.00
44457;BME280;30159;49.316;8.558;2022-09-03T10:25:06;100097.06;;;19.67;100.00
44457;BME280;30159;49.316;8.558;2022-09-03T10:27:35;100094.63;;;19.90;100.00
44457;BME280;30159;49.316;8.558;2022-09-03T10:30:04;100055.63;;;19.24;100.00
44457;BME280;30159;49.316;8.558;2022-09-03T10:32:38;100077.38;;;19.21;100.00
44457;BME280;30159;49.316;8.558;2022-09-03T10:35:16;100088.75;;;19.35;100.00
44457;BME280;30159;49.316;8.558;2022-09-03T10:37:50;100086.16;;;19.26;100.00
44457;BME280;30159;49.316;8.558;2022-09-03T10:40:35;100087.50;;;19.73;100.00
44457;BME280;30159;49.316;8.558;2022-09-03T10:43:16;100050.56;;;19.95;100.00
44457;BME280;30159;49.316;8.558;2022-09-03T10:45:52;100097.09;;;20.87;100.00
44457;BME280;30159;49.316;8.558;2022-09-03T10:48:49;100112.81;;;21.25;100.00
44457;BME280;30159;49.316;8.558;2022-09-03T10:51:19;100087.25;;;21.56;98.20
44457;BME280;30159;49.316;8.558;2022-09-03T10:54:04;100126.22;;;22.04;96.22
44457;BME280;30159;49.316;8.558;2022-09-03T10:56:40;100125.63;;;22.34;97.96
44457;BME280;30159;49.316;8.558;2022-09-03T10:59:23;100116.53;;;22.53;95.16
44457;BME280;30159;49.316;8.558;2022-09-03T11:01:58;100101.88;;;22.22;93.46
44457;BME280;30159;49.316;8.558;2022-09-03T11:04:37;100096.13;;;22.31;97.14
44457;BME280;30159;49.316;8.558;2022-09-03T11:07:11;100083.69;;;21.95;95.12
44457;BME280;30159;49.316;8.558;2022-09-03T11:09:42;100110.22;;;21.67;95.43
44457;BME280;30159;49.316;8.558;2022-09-03T11:12:16;100106.25;;;21.30;98.05
44457;BME280;30159;49.316;8.558;2022-09-03T11:14:51;100096.50;;;21.48;99.00
44457;BME280;30159;49.316;8.558;2022-09-03T11:17:23;100101.47;;;21.62;99.33
44457;BME280;30159;49.316;8.558;2022-09-03T11:19:55;100095.69;;;21.67;96.54
44457;BME280;30159;49.316;8.558;2022-09-03T11:22:25;100070.94;;;21.63;97.42
44457;BME280;30159;49.316;8.558;2022-09-03T11:24:56;100093.09;;;21.94;97.08
44457;BME280;30159;49.316;8.558;2022-09-03T11:27:37;100083.94;;;22.09;99.93
44457;BME280;30159;49.316;8.558;2022-09-03T11:30:22;100080.75;;;22.07;94.98
44457;BME280;30159;49.316;8.558;2022-09-03T11:32:51;100042.22;;;21.80;94.94
44457;BME280;30159;49.316;8.558;2022-09-03T11:35:25;100076.22;;;21.95;94.58
44457;BME280;30159;49.316;8.558;2022-09-03T11:37:56;100067.16;;;21.72;96.45
44457;BME280;30159;49.316;8.558;2022-09-03T11:40:31;100079.44;;;21.58;97.70
44457;BME280;30159;49.316;8.558;2022-09-03T11:43:07;100074.38;;;21.80;97.95
44457;BME280;30159;49.316;8.558;2022-09-03T11:45:39;100074.03;;;22.04;98.34
44457;BME280;30159;49.316;8.558;2022-09-03T11:48:32;100065.38;;;22.02;98.75
44457;BME280;30159;49.316;8.558;2022-09-03T11:51:00;100063.41;;;21.41;98.76
44457;BME280;30159;49.316;8.558;2022-09-03T11:53:33;100063.84;;;21.43;98.41
44457;BME280;30159;49.316;8.558;2022-09-03T11:56:11;100066.88;;;21.57;97.90
44457;BME280;30159;49.316;8.558;2022-09-03T11:58:42;100064.09;;;21.77;95.70
44457;BME280;30159;49.316;8.558;2022-09-03T12:01:12;100070.03;;;21.98;94.80
44457;BME280;30159;49.316;8.558;2022-09-03T12:03:43;100022.66;;;21.82;92.85
44457;BME280;30159;49.316;8.558;2022-09-03T12:06:26;100065.66;;;21.97;94.31
44457;BME280;30159;49.316;8.558;2022-09-03T12:11:54;100059.44;;;22.69;94.20
44457;BME280;30159;49.316;8.558;2022-09-03T12:14:30;100054.22;;;22.87;91.53
44457;BME280;30159;49.316;8.558;2022-09-03T12:17:07;100052.63;;;22.60;89.70
44457;BME280;30159;49.316;8.558;2022-09-03T12:19:49;100047.31;;;22.47;92.83
44457;BME280;30159;49.316;8.558;2022-09-03T12:22:19;100056.25;;;22.67;91.56
44457;BME280;30159;49.316;8.558;2022-09-03T12:24:46;100059.72;;;22.87;90.57
44457;BME280;30159;49.316;8.558;2022-09-03T12:27:17;100047.59;;;22.92;90.58
44457;BME280;30159;49.316;8.558;2022-09-03T12:29:54;100065.25;;;23.18;89.86
44457;BME280;30159;49.316;8.558;2022-09-03T12:32:26;100058.75;;;23.03;87.55
44457;BME280;30159;49.316;8.558;2022-09-03T12:34:57;100053.75;;;23.08;91.48
44457;BME280;30159;49.316;8.558;2022-09-03T12:37:25;100056.63;;;22.92;87.66
44457;BME280;30159;49.316;8.558;2022-09-03T12:39:53;100022.25;;;22.79;87.35
44457;BME280;30159;49.316;8.558;2022-09-03T12:42:24;100053.88;;;23.19;85.82
44457;BME280;30159;49.316;8.558;2022-09-03T12:44:51;100062.59;;;23.25;88.28
44457;BME280;30159;49.316;8.558;2022-09-03T12:47:19;100062.97;;;23.23;87.91
44457;BME280;30159;49.316;8.558;2022-09-03T12:49:50;100065.09;;;23.33;88.22
44457;BME280;30159;49.316;8.558;2022-09-03T12:52:23;100061.47;;;23.29;90.60
44457;BME280;30159;49.316;8.558;2022-09-03T12:54:56;100017.59;;;23.10;86.77
44457;BME280;30159;49.316;8.558;2022-09-03T12:57:27;100064.16;;;23.56;85.27
44457;BME280;30159;49.316;8.558;2022-09-03T12:59:59;100063.34;;;23.86;85.60
44457;BME280;30159;49.316;8.558;2022-09-03T13:02:34;100072.03;;;23.91;86.00
44457;BME280;30159;49.316;8.558;2022-09-03T13:05:05;100068.25;;;24.07;83.87
44457;BME280;30159;49.316;8.558;2022-09-03T13:07:37;100063.41;;;23.93;81.71
44457;BME280;30159;49.316;8.558;2022-09-03T13:10:06;100062.91;;;23.84;83.56
44457;BME280;30159;49.316;8.558;2022-09-03T13:12:43;100052.56;;;24.14;84.59
44457;BME280;30159;49.316;8.558;2022-09-03T13:15:18;100056.09;;;24.52;83.99
44457;BME280;30159;49.316;8.558;2022-09-03T13:18:07;100068.28;;;25.17;85.01
44457;BME280;30159;49.316;8.558;2022-09-03T13:20:46;100060.53;;;25.37;77.00
44457;BME280;30159;49.316;8.558;2022-09-03T13:23:36;100061.47;;;25.84;75.45
44457;BME280;30159;49.316;8.558;2022-09-03T13:26:16;100059.59;;;26.35;74.63
44457;BME280;30159;49.316;8.558;2022-09-03T13:31:43;100061.53;;;26.45;73.96
44457;BME280;30159;49.316;8.558;2022-09-03T13:34:16;100056.03;;;26.70;74.26
44457;BME280;30159;49.316;8.558;2022-09-03T13:36:53;100048.91;;;26.69;72.42
44457;BME280;30159;49.316;8.558;2022-09-03T13:39:26;100059.59;;;26.60;72.95
44457;BME280;30159;49.316;8.558;2022-09-03T13:41:57;100050.09;;;26.61;73.21
44457;BME280;30159;49.316;8.558;2022-09-03T13:44:36;100055.22;;;26.88;75.26
44457;BME280;30159;49.316;8.558;2022-09-03T13:47:09;100050.03;;;27.01;72.19
44457;BME280;30159;49.316;8.558;2022-09-03T13:49:42;100044.50;;;27.01;73.84
44457;BME280;30159;49.316;8.558;2022-09-03T13:52:36;100044.81;;;27.28;72.17
44457;BME280;30159;49.316;8.558;2022-09-03T13:55:10;100047.56;;;27.31;70.83
44457;BME280;30159;49.316;8.558;2022-09-03T13:57:45;100041.81;;;26.61;72.16
44457;BME280;30159;49.316;8.558;2022-09-03T14:00:23;100043.38;;;26.19;73.78
44457;BME280;30159;49.316;8.558;2022-09-03T14:02:54;100044.53;;;25.90;75.77
44457;BME280;30159;49.316;8.558;2022-09-03T14:05:35;100041.59;;;25.32;78.54
44457;BME280;30159;49.316;8.558;2022-09-03T14:08:14;100034.25;;;24.92;78.10
44457;BME280;30159;49.316;8.558;2022-09-03T14:11:00;100039.44;;;25.00;79.71
44457;BME280;30159;49.316;8.558;2022-09-03T14:13:45;100036.63;;;24.93;78.78
44457;BME280;30159;49.316;8.558;2022-09-03T14:16:22;100035.84;;;24.96;78.26
44457;BME280;30159;49.316;8.558;2022-09-03T14:18:54;100023.59;;;24.87;80.35
44457;BME280;30159;49.316;8.558;2022-09-03T14:21:26;100036.59;;;24.83;81.95
44457;BME280;30159;49.316;8.558;2022-09-03T14:24:03;100035.28;;;24.66;79.62
44457;BME280;30159;49.316;8.558;2022-09-03T14:26:34;100041.91;;;24.54;83.29
44457;BME280;30159;49.316;8.558;2022-09-03T14:29:04;100045.47;;;24.58;81.66
44457;BME280;30159;49.316;8.558;2022-09-03T14:31:54;100047.66;;;24.90;83.58
44457;BME280;30159;49.316;8.558;2022-09-03T14:34:31;100058.88;;;25.22;82.38
44457;BME280;30159;49.316;8.558;2022-09-03T14:37:08;100057.81;;;25.44;80.75
44457;BME280;30159;49.316;8.558;2022-09-03T14:39:48;100045.66;;;25.71;79.56
44457;BME280;30159;49.316;8.558;2022-09-03T14:42:31;100055.91;;;25.70;79.03
44457;BME280;30159;49.316;8.558;2022-09-03T14:48:07;100042.44;;;25.54;81.00
44457;BME280;30159;49.316;8.558;2022-09-03T14:50:56;99986.78;;;24.57;81.45
44457;BME280;30159;49.316;8.558;2022-09-03T14:53:53;100033.31;;;24.63;82.80
44457;BME280;30159;49.316;8.558;2022-09-03T14:56:33;100051.72;;;24.48;83.50
44457;BME280;30159;49.316;8.558;2022-09-03T15:02:12;100039.44;;;23.97;85.90
44457;BME280;30159;49.316;8.558;2022-09-03T15:04:51;100060.41;;;24.09;86.46
44457;BME280;30159;49.316;8.558;2022-09-03T15:07:29;100028.66;;;23.81;86.78
44457;BME280;30159;49.316;8.558;2022-09-03T15:10:05;100063.19;;;24.12;88.66
44457;BME280;30159;49.316;8.558;2022-09-03T15:12:38;100061.19;;;24.06;87.84
44457;BME280;30159;49.316;8.558;2022-09-03T15:15:11;100042.25;;;24.04;87.34
44457;BME280;30159;49.316;8.558;2022-09-03T15:17:46;100061.31;;;24.24;86.23
44457;BME280;30159;49.316;8.558;2022-09-03T15:20:20;100059.03;;;24.33;86.91
44457;BME280;30159;49.316;8.558;2022-09-03T15:23:19;100068.03;;;24.26;87.10
44457;BME280;30159;49.316;8.558;2022-09-03T15:26:14;100055.81;;;24.24;87.40
44457;BME280;30159;49.316;8.558;2022-09-03T15:28:58;100072.00;;;24.29;87.96
44457;BME280;30159;49.316;8.558;2022-09-03T15:31:40;100060.97;;;24.25;91.25
44457;BME280;30159;49.316;8.558;2022-09-03T15:34:16;100054.53;;;24.10;93.75
44457;BME280;30159;49.316;8.558;2022-09-03T15:36:48;100077.31;;;24.07;93.32